Time;durP1;ratioP1;P1;durP2;ratioP2;P2;SDS_P1;SDS_P2;PMS_P1;PMS_P2;Temp;Humidity;BMP_temperature;BMP_pressure;BME280_temperature;BME280_humidity;BME280_pressure;Samples;Min_cycle;Max_cycle;Signal;HPM_P1;HPM_P2
2022/12/01 00:02:14;;;;;;;78.30;31.90;;;;;;;0.52;90.05;101512.66;103278;1281;22584;-58
2022/12/01 00:04:47;;;;;;;68.50;29.30;;;;;;;0.52;90.12;101511.48;103237;1289;25617;-55
2022/12/01 00:07:19;;;;;;;75.40;32.00;;;;;;;0.53;90.21;101510.86;103153;1281;25358;-55
2022/12/01 00:12:42;;;;;;;71.30;28.80;;;;;;;0.51;90.24;101515.08;103375;1282;22549;-56
2022/12/01 00:15:14;;;;;;;74.90;32.40;;;;;;;0.50;90.29;101514.68;103297;1304;25192;-57
2022/12/01 00:17:46;;;;;;;81.90;33.80;;;;;;;0.51;90.31;101520.04;103353;1281;25315;-57
2022/12/01 00:20:18;;;;;;;73.90;30.90;;;;;;;0.50;90.24;101524.81;103327;1287;25267;-58
2022/12/01 00:22:51;;;;;;;67.80;30.10;;;;;;;0.48;90.24;101523.84;103495;1297;22615;-56
2022/12/01 00:25:23;;;;;;;72.30;30.70;;;;;;;0.45;89.95;101522.88;103283;1281;22619;-56
2022/12/01 00:27:56;;;;;;;80.90;32.40;;;;;;;0.39;89.95;101526.38;103241;1290;23076;-56
2022/12/01 00:30:27;;;;;;;72.40;30.50;;;;;;;0.38;90.28;101527.69;103252;1281;22483;-56
2022/12/01 00:32:59;;;;;;;73.50;30.80;;;;;;;0.39;90.33;101521.98;103361;1303;24743;-56
2022/12/01 00:35:30;;;;;;;75.70;31.10;;;;;;;0.40;90.31;101524.73;103211;1281;22531;-55
2022/12/01 00:38:04;;;;;;;65.90;29.50;;;;;;;0.40;90.23;101518.05;103360;1281;23920;-57
2022/12/01 00:40:36;;;;;;;73.80;29.50;;;;;;;0.40;90.09;101520.31;103268;1305;22508;-56
2022/12/01 00:43:07;;;;;;;62.30;26.90;;;;;;;0.40;90.11;101518.45;103358;1302;22474;-58
2022/12/01 00:45:38;;;;;;;65.20;26.20;;;;;;;0.41;90.41;101514.92;103398;1299;22880;-58
2022/12/01 00:48:09;;;;;;;61.60;25.30;;;;;;;0.44;90.44;101515.02;103177;1289;25832;-58
2022/12/01 00:50:45;;;;;;;59.70;25.00;;;;;;;0.45;90.10;101516.69;103280;1274;22604;-56
2022/12/01 00:53:17;;;;;;;69.10;28.00;;;;;;;0.44;90.07;101517.77;103297;1280;25237;-57
2022/12/01 00:55:49;;;;;;;60.10;25.80;;;;;;;0.42;90.00;101513.51;103333;1305;24345;-56
2022/12/01 00:58:22;;;;;;;62.00;25.90;;;;;;;0.41;90.04;101513.04;103332;1305;22483;-58
2022/12/01 01:00:58;;;;;;;62.30;24.70;;;;;;;0.41;90.05;101512.33;103322;1274;25434;-57
2022/12/01 01:03:30;;;;;;;64.70;25.60;;;;;;;0.37;89.88;101513.39;103417;1291;22471;-57
2022/12/01 01:06:08;;;;;;;67.70;26.70;;;;;;;0.35;90.03;101513.13;103339;1281;22498;-57
2022/12/01 01:08:41;;;;;;;60.00;25.80;;;;;;;0.31;90.01;101512.16;103193;1292;24463;-56
2022/12/01 01:11:12;;;;;;;55.90;23.10;;;;;;;0.30;90.02;101510.48;103260;1281;25335;-55
2022/12/01 01:13:43;;;;;;;58.20;23.50;;;;;;;0.27;89.77;101509.69;103257;1305;24235;-54
2022/12/01 01:16:17;;;;;;;55.90;23.30;;;;;;;0.26;89.81;101504.58;103302;1274;26488;-55
2022/12/01 01:18:48;;;;;;;57.90;23.10;;;;;;;0.24;89.84;101507.63;103312;1281;24350;-56
2022/12/01 01:21:21;;;;;;;57.00;24.80;;;;;;;0.24;89.96;101504.48;103413;1281;23206;-53
2022/12/01 01:23:54;;;;;;;55.00;24.40;;;;;;;0.24;89.99;101507.39;103269;1281;22545;-59
2022/12/01 01:26:27;;;;;;;57.80;24.10;;;;;;;0.23;89.83;101505.34;103434;1304;22478;-57
2022/12/01 01:29:03;;;;;;;57.00;24.00;;;;;;;0.24;89.93;101504.02;103311;1305;22700;-57
2022/12/01 01:31:35;;;;;;;58.20;23.60;;;;;;;0.24;90.00;101500.71;103405;1305;24318;-58
2022/12/01 01:34:06;;;;;;;53.30;23.00;;;;;;;0.25;89.94;101497.42;103242;1281;24270;-57
2022/12/01 01:36:38;;;;;;;52.50;22.50;;;;;;;0.26;90.07;101493.35;103340;1280;22595;-54
2022/12/01 01:39:09;;;;;;;57.00;23.60;;;;;;;0.29;90.06;101490.72;103301;1289;22471;-58
2022/12/01 01:41:41;;;;;;;55.80;23.30;;;;;;;0.31;90.02;101488.54;102435;1281;1279001;-58
2022/12/01 01:44:50;;;;;;;54.40;24.10;;;;;;;0.33;90.16;101485.10;103239;1280;23875;-59
2022/12/01 01:47:25;;;;;;;57.90;24.10;;;;;;;0.35;90.09;101483.00;103299;1281;22528;-56
2022/12/01 01:49:59;;;;;;;54.50;24.70;;;;;;;0.36;90.02;101482.60;103282;1282;22504;-58
2022/12/01 01:52:31;;;;;;;51.60;21.10;;;;;;;0.35;89.87;101476.02;103460;1274;22476;-55
2022/12/01 01:55:03;;;;;;;57.60;22.30;;;;;;;0.35;89.97;101477.98;103280;1273;22498;-57
2022/12/01 01:57:36;;;;;;;55.30;22.80;;;;;;;0.36;89.89;101478.52;103304;1281;22483;-56
2022/12/01 02:00:11;;;;;;;59.60;23.20;;;;;;;0.39;89.99;101482.57;103302;1305;22483;-57
2022/12/01 02:02:45;;;;;;;56.80;23.30;;;;;;;0.41;90.04;101477.09;103390;1274;22472;-57
2022/12/01 02:05:22;;;;;;;58.20;24.60;;;;;;;0.40;89.83;101476.37;103296;1281;22482;-58
2022/12/01 02:07:56;;;;;;;59.40;23.60;;;;;;;0.40;89.84;101472.45;103356;1281;22474;-55
2022/12/01 02:10:35;;;;;;;61.20;24.30;;;;;;;0.41;89.81;101468.93;103650;1274;22557;-58
2022/12/01 02:13:15;;;;;;;57.40;23.10;;;;;;;0.42;89.89;101470.66;103367;1304;22464;-58
2022/12/01 02:15:56;;;;;;;59.40;22.40;;;;;;;0.42;89.73;101471.75;103302;1273;22519;-58
2022/12/01 02:18:38;;;;;;;55.80;24.00;;;;;;;0.43;89.81;101476.85;103154;1277;24306;-60
2022/12/01 02:21:27;;;;;;;57.50;24.00;;;;;;;0.45;89.94;101474.92;103182;1290;22800;-57
2022/12/01 02:24:34;;;;;;;60.90;24.60;;;;;;;0.46;89.93;101476.73;103241;1281;22496;-55
2022/12/01 02:27:15;;;;;;;60.10;23.90;;;;;;;0.47;89.97;101478.64;103328;1281;22742;-57
2022/12/01 02:30:15;;;;;;;62.60;24.20;;;;;;;0.49;89.93;101473.46;103253;1297;24332;-57
2022/12/01 02:32:57;;;;;;;57.00;24.20;;;;;;;0.49;89.84;101469.92;103244;1290;22598;-55
2022/12/01 02:35:36;;;;;;;54.10;24.60;;;;;;;0.44;89.54;101472.02;103275;1305;24215;-56
2022/12/01 02:38:16;;;;;;;56.70;24.40;;;;;;;0.45;89.90;101470.84;103262;1281;24332;-60
2022/12/01 02:40:54;;;;;;;67.40;25.90;;;;;;;0.44;89.92;101470.13;103421;1303;24340;-58
2022/12/01 02:43:31;;;;;;;55.60;23.30;;;;;;;0.46;89.99;101471.64;103319;1304;25468;-57
2022/12/01 02:46:12;;;;;;;55.00;23.30;;;;;;;0.48;90.11;101463.80;103173;1281;22586;-57
2022/12/01 02:48:48;;;;;;;58.40;23.70;;;;;;;0.49;89.89;101465.21;103365;1281;22465;-56
2022/12/01 02:51:24;;;;;;;57.10;23.70;;;;;;;0.49;89.94;101460.13;103423;1281;25185;-58
2022/12/01 02:53:56;;;;;;;53.70;23.00;;;;;;;0.49;89.92;101458.48;103276;1274;25340;-55
2022/12/01 02:56:28;;;;;;;54.90;22.80;;;;;;;0.49;89.89;101457.14;103321;1276;24441;-57
2022/12/01 02:58:59;;;;;;;60.20;25.20;;;;;;;0.49;90.00;101457.14;103400;1287;22510;-58
2022/12/01 03:01:53;;;;;;;65.90;26.60;;;;;;;0.50;89.90;101454.86;103323;1282;25279;-58
2022/12/01 03:04:44;;;;;;;53.60;23.70;;;;;;;0.47;89.89;101451.70;103285;1287;25197;-60
2022/12/01 03:07:36;;;;;;;60.80;23.30;;;;;;;0.42;89.81;101445.85;103156;1277;25518;-57
2022/12/01 03:10:17;;;;;;;60.70;23.60;;;;;;;0.42;89.87;101440.92;103263;1284;22727;-56
2022/12/01 03:12:59;;;;;;;57.50;24.10;;;;;;;0.41;90.05;101440.11;103312;1298;23231;-56
2022/12/01 03:15:36;;;;;;;61.10;25.30;;;;;;;0.44;90.09;101440.06;103317;1281;22479;-59
2022/12/01 03:18:17;;;;;;;59.10;24.80;;;;;;;0.43;89.86;101440.05;103319;1275;24109;-59
2022/12/01 03:20:57;;;;;;;61.20;24.00;;;;;;;0.43;89.97;101439.67;103297;1274;22483;-59
2022/12/01 03:23:33;;;;;;;55.00;24.00;;;;;;;0.43;90.15;101440.77;103189;1305;22465;-56
2022/12/01 03:26:09;;;;;;;60.30;26.50;;;;;;;0.46;90.11;101439.91;103311;1305;22557;-58
2022/12/01 03:28:46;;;;;;;62.60;26.20;;;;;;;0.47;90.18;101440.64;103248;1299;23122;-59
2022/12/01 03:31:21;;;;;;;64.40;25.60;;;;;;;0.48;90.14;101437.96;103318;1280;22617;-57
2022/12/01 03:33:59;;;;;;;58.00;23.70;;;;;;;0.47;90.12;101433.41;103343;1281;22460;-56
2022/12/01 03:36:34;;;;;;;58.00;25.30;;;;;;;0.49;90.09;101437.42;103315;1281;22480;-60
2022/12/01 03:39:13;;;;;;;64.30;26.00;;;;;;;0.48;90.06;101436.80;103385;1274;22474;-57
2022/12/01 03:41:49;;;;;;;58.10;23.80;;;;;;;0.45;89.97;101441.49;103241;1280;22457;-59
2022/12/01 03:44:32;;;;;;;55.20;23.20;;;;;;;0.45;90.02;101430.65;103222;1297;22475;-54
2022/12/01 03:47:09;;;;;;;59.50;24.40;;;;;;;0.44;90.13;101433.14;103334;1274;25377;-56
2022/12/01 03:49:42;;;;;;;61.70;24.90;;;;;;;0.46;90.24;101435.60;103174;1305;22517;-54
2022/12/01 03:52:20;;;;;;;61.30;25.00;;;;;;;0.46;90.14;101433.79;103250;1280;22839;-57
2022/12/01 03:55:00;;;;;;;62.20;25.40;;;;;;;0.43;90.03;101431.58;103311;1280;25244;-57
2022/12/01 03:57:36;;;;;;;59.50;24.50;;;;;;;0.43;90.29;101429.70;103268;1281;25365;-58
2022/12/01 04:00:11;;;;;;;62.10;25.30;;;;;;;0.44;90.14;101430.56;103277;1281;22473;-55
2022/12/01 04:02:43;;;;;;;59.40;25.20;;;;;;;0.44;90.27;101433.15;103305;1305;22480;-58
2022/12/01 04:05:15;;;;;;;61.40;25.90;;;;;;;0.45;90.19;101435.91;103281;1297;24368;-56
2022/12/01 04:07:46;;;;;;;65.00;27.00;;;;;;;0.44;90.14;101435.90;103267;1286;22558;-57
2022/12/01 04:10:17;;;;;;;58.10;23.70;;;;;;;0.45;90.29;101437.80;103293;1281;22475;-56
2022/12/01 04:12:49;;;;;;;70.60;27.40;;;;;;;0.44;90.18;101439.37;103297;1274;22648;-58
2022/12/01 04:15:21;;;;;;;72.00;26.10;;;;;;;0.44;90.21;101441.87;103250;1281;22463;-55
2022/12/01 04:17:53;;;;;;;59.90;23.30;;;;;;;0.43;90.27;101442.96;103337;1281;22804;-58
2022/12/01 04:20:24;;;;;;;64.10;24.80;;;;;;;0.44;90.35;101442.48;103285;1282;22480;-59
2022/12/01 04:22:56;;;;;;;68.70;28.20;;;;;;;0.42;90.17;101442.41;103247;1296;22905;-59
2022/12/01 04:25:27;;;;;;;65.40;26.10;;;;;;;0.41;90.31;101440.83;103338;1290;22584;-57
2022/12/01 04:27:58;;;;;;;70.80;28.40;;;;;;;0.43;90.53;101440.52;103274;1281;25511;-57
2022/12/01 04:30:30;;;;;;;66.80;28.50;;;;;;;0.45;90.54;101435.67;103322;1280;25288;-59
2022/12/01 04:33:01;;;;;;;64.40;27.00;;;;;;;0.43;90.47;101434.71;103232;1287;25320;-58
2022/12/01 04:35:33;;;;;;;66.60;28.60;;;;;;;0.45;90.59;101438.97;103291;1273;22466;-58
2022/12/01 04:38:04;;;;;;;66.80;27.10;;;;;;;0.44;90.47;101439.75;103312;1290;25278;-61
2022/12/01 04:40:38;;;;;;;67.80;28.40;;;;;;;0.46;90.73;101440.88;103218;1274;22501;-60
2022/12/01 04:43:09;;;;;;;65.50;28.70;;;;;;;0.47;90.60;101446.84;103283;1281;25445;-57
2022/12/01 04:45:41;;;;;;;76.50;32.30;;;;;;;0.48;90.65;101440.25;103303;1273;24249;-55
2022/12/01 04:48:12;;;;;;;72.50;32.40;;;;;;;0.50;90.62;101445.13;103289;1280;25556;-57
2022/12/01 04:50:44;;;;;;;72.40;30.90;;;;;;;0.51;90.70;101444.20;103328;1304;24297;-56
2022/12/01 04:53:15;;;;;;;73.20;32.70;;;;;;;0.54;90.91;101450.58;103189;1280;22470;-57
2022/12/01 04:55:49;;;;;;;72.90;31.70;;;;;;;0.56;90.91;101449.25;103286;1304;24750;-56
2022/12/01 04:58:22;;;;;;;71.00;29.80;;;;;;;0.57;90.75;101449.10;103328;1297;22466;-66
2022/12/01 05:00:54;;;;;;;69.40;28.60;;;;;;;0.54;90.57;101445.95;103361;1304;24253;-61
2022/12/01 05:03:25;;;;;;;72.90;29.90;;;;;;;0.53;90.71;101447.36;103263;1281;23163;-60
2022/12/01 05:06:07;;;;;;;69.70;29.70;;;;;;;0.55;90.76;101446.11;103150;1298;22737;-58
2022/12/01 05:08:42;;;;;;;73.30;32.00;;;;;;;0.54;90.67;101451.36;103245;1281;22889;-62
2022/12/01 05:11:14;;;;;;;78.50;31.90;;;;;;;0.56;90.79;101452.08;103209;1274;24981;-61
2022/12/01 05:13:47;;;;;;;65.80;27.20;;;;;;;0.57;90.90;101450.13;103270;1284;25331;-62
2022/12/01 05:16:20;;;;;;;73.30;29.90;;;;;;;0.57;90.83;101448.09;103234;1281;25429;-60
2022/12/01 05:20:55;;;;;;;74.00;29.60;;;;;;;0.58;90.86;101447.92;103350;1273;22491;-60
2022/12/01 05:21:48;;;;;;;68.20;31.70;;;;;;;0.61;90.87;101450.77;103366;1288;22651;-60
2022/12/01 05:24:21;;;;;;;74.10;28.70;;;;;;;0.62;90.86;101450.40;103164;1305;22499;-57
2022/12/01 05:26:52;;;;;;;67.00;29.30;;;;;;;0.62;90.83;101449.69;103187;1282;22481;-62
2022/12/01 05:29:23;;;;;;;68.80;28.70;;;;;;;0.64;90.90;101454.25;103241;1281;25342;-66
2022/12/01 05:31:55;;;;;;;71.30;31.20;;;;;;;0.65;90.90;101451.98;103350;1304;22526;-67
2022/12/01 05:34:28;;;;;;;69.80;28.70;;;;;;;0.64;90.78;101448.05;103334;1281;24558;-59
2022/12/01 05:37:12;;;;;;;71.00;29.50;;;;;;;0.62;90.77;101448.05;103277;1274;23865;-61
2022/12/01 05:39:59;;;;;;;77.90;31.90;;;;;;;0.63;90.97;101446.47;103141;1298;25241;-60
2022/12/01 05:42:35;;;;;;;80.20;32.60;;;;;;;0.61;90.81;101437.45;103102;1284;25381;-59
2022/12/01 05:45:09;;;;;;;71.10;31.10;;;;;;;0.61;90.91;101439.63;103282;1290;25571;-60
2022/12/01 05:47:41;;;;;;;64.80;27.90;;;;;;;0.61;91.02;101438.07;103177;1305;26952;-60
2022/12/01 05:50:13;;;;;;;69.40;30.10;;;;;;;0.62;91.00;101441.21;104772;1283;22736;-59
2022/12/01 05:52:44;;;;;;;63.90;29.30;;;;;;;0.64;91.06;101443.27;103382;1298;22461;-60
2022/12/01 05:55:16;;;;;;;71.20;29.30;;;;;;;0.68;91.11;101442.74;103335;1274;24179;-60
2022/12/01 05:57:48;;;;;;;65.30;28.60;;;;;;;0.70;91.11;101447.39;103407;1273;24300;-59
2022/12/01 06:00:21;;;;;;;70.60;29.00;;;;;;;0.73;91.15;101452.98;103210;1273;22478;-60
2022/12/01 06:02:53;;;;;;;72.00;30.40;;;;;;;0.78;91.21;101455.29;103405;1281;22476;-60
2022/12/01 06:05:25;;;;;;;70.40;30.30;;;;;;;0.80;91.10;101451.70;103384;1281;22527;-59
2022/12/01 06:07:56;;;;;;;70.20;29.10;;;;;;;0.80;90.90;101454.14;103292;1300;22670;-59
2022/12/01 06:10:28;;;;;;;69.00;29.00;;;;;;;0.81;90.87;101450.59;103405;1286;24338;-60
2022/12/01 06:12:59;;;;;;;69.50;28.80;;;;;;;0.78;90.69;101456.86;103234;1281;22466;-59
2022/12/01 06:15:31;;;;;;;71.90;28.50;;;;;;;0.76;90.87;101462.59;103276;1305;22593;-60
2022/12/01 06:18:03;;;;;;;64.20;26.20;;;;;;;0.77;91.02;101459.59;103221;1281;26366;-60
2022/12/01 06:20:37;;;;;;;74.40;29.40;;;;;;;0.77;90.93;101458.03;103097;1283;23164;-59
2022/12/01 06:23:09;;;;;;;71.50;29.60;;;;;;;0.75;90.98;101453.86;103191;1297;26279;-60
2022/12/01 06:25:40;;;;;;;68.30;29.60;;;;;;;0.76;91.00;101452.45;103259;1291;22488;-59
2022/12/01 06:28:11;;;;;;;71.90;28.40;;;;;;;0.72;90.88;101445.83;103426;1297;22494;-59
2022/12/01 06:30:43;;;;;;;73.90;30.90;;;;;;;0.70;90.99;101450.52;103262;1281;22464;-59
2022/12/01 06:33:14;;;;;;;73.60;30.20;;;;;;;0.71;91.31;101452.65;103364;1281;25987;-59
2022/12/01 06:35:46;;;;;;;74.60;29.90;;;;;;;0.74;91.24;101458.02;103208;1281;22474;-59
2022/12/01 06:38:18;;;;;;;80.80;31.90;;;;;;;0.75;91.29;101456.23;103358;1283;24380;-59
2022/12/01 06:40:49;;;;;;;69.30;30.10;;;;;;;0.76;91.20;101457.25;103380;1288;24279;-60
2022/12/01 06:43:20;;;;;;;73.00;30.40;;;;;;;0.79;91.33;101458.20;103306;1289;25296;-60
2022/12/01 06:45:52;;;;;;;75.70;31.50;;;;;;;0.81;91.26;101455.94;103256;1304;22471;-58
2022/12/01 06:48:23;;;;;;;71.80;27.30;;;;;;;0.81;91.26;101457.82;103358;1304;25439;-57
2022/12/01 06:50:58;;;;;;;73.50;31.00;;;;;;;0.80;91.13;101457.27;103286;1280;24386;-60
2022/12/01 06:53:30;;;;;;;70.90;28.70;;;;;;;0.80;91.36;101455.39;103245;1281;25381;-58
2022/12/01 06:56:04;;;;;;;78.10;30.90;;;;;;;0.83;91.45;101457.77;103198;1305;22596;-61
2022/12/01 06:58:35;;;;;;;72.00;28.50;;;;;;;0.83;91.36;101455.86;103192;1287;24263;-61
2022/12/01 07:01:12;;;;;;;72.60;29.60;;;;;;;0.83;91.38;101458.93;103261;1281;27381;-60
2022/12/01 07:03:47;;;;;;;75.20;30.50;;;;;;;0.84;91.45;101460.83;103283;1282;22549;-61
2022/12/01 07:06:18;;;;;;;70.90;30.30;;;;;;;0.87;91.58;101462.41;103193;1306;22509;-60
2022/12/01 07:08:50;;;;;;;72.40;28.30;;;;;;;0.90;91.52;101462.59;103177;1281;24391;-60
2022/12/01 07:11:21;;;;;;;71.00;31.00;;;;;;;0.90;91.49;101459.30;103256;1281;22564;-60
2022/12/01 07:13:56;;;;;;;72.90;29.40;;;;;;;0.93;91.52;101459.62;103179;1300;25348;-60
2022/12/01 07:16:28;;;;;;;64.10;26.20;;;;;;;0.94;91.47;101463.64;103162;1274;25349;-60
2022/12/01 07:19:00;;;;;;;67.00;27.40;;;;;;;0.93;91.39;101470.06;103153;1280;25382;-61
2022/12/01 07:21:31;;;;;;;70.00;29.80;;;;;;;0.94;91.53;101470.94;103190;1281;22481;-61
2022/12/01 07:24:02;;;;;;;67.20;28.50;;;;;;;0.96;91.48;101475.19;103204;1305;24414;-60
2022/12/01 07:26:34;;;;;;;67.50;27.90;;;;;;;0.97;91.55;101469.39;103153;1282;23841;-61
2022/12/01 07:29:05;;;;;;;72.90;29.50;;;;;;;0.95;91.41;101473.70;103175;1281;22477;-60
2022/12/01 07:31:38;;;;;;;71.70;31.30;;;;;;;0.97;91.55;101474.56;103124;1281;24252;-59
2022/12/01 07:34:13;;;;;;;77.10;31.80;;;;;;;0.99;91.62;101470.27;103160;1277;25291;-60
2022/12/01 07:36:44;;;;;;;78.00;31.60;;;;;;;1.00;91.73;101472.39;103190;1306;24218;-59
2022/12/01 07:39:15;;;;;;;84.10;30.50;;;;;;;1.03;91.81;101470.98;103196;1274;22481;-60
2022/12/01 07:41:47;;;;;;;71.20;28.60;;;;;;;1.07;91.81;101474.70;103105;1293;22475;-60
2022/12/01 07:44:18;;;;;;;73.10;30.00;;;;;;;1.09;91.52;101483.29;103214;1282;22471;-60
2022/12/01 07:46:49;;;;;;;65.80;27.50;;;;;;;1.08;91.54;101481.08;103194;1305;24381;-59
2022/12/01 07:49:21;;;;;;;67.80;29.50;;;;;;;1.06;91.37;101486.01;103267;1281;22937;-57
2022/12/01 07:51:52;;;;;;;75.20;29.30;;;;;;;1.05;91.50;101481.84;103222;1281;22472;-59
2022/12/01 07:54:25;;;;;;;65.90;29.50;;;;;;;1.09;91.63;101483.68;103186;1281;22461;-61
2022/12/01 07:56:56;;;;;;;71.40;31.80;;;;;;;1.14;91.76;101488.34;103190;1305;22596;-57
2022/12/01 07:59:28;;;;;;;72.60;30.20;;;;;;;1.18;91.78;101485.84;103253;1281;22483;-58
2022/12/01 08:02:01;;;;;;;74.70;30.00;;;;;;;1.22;91.74;101488.14;103230;1281;22508;-58
2022/12/01 08:04:32;;;;;;;72.80;29.30;;;;;;;1.25;91.64;101487.54;103374;1273;22482;-60
2022/12/01 08:07:04;;;;;;;71.90;29.80;;;;;;;1.27;91.47;101487.77;103151;1304;22468;-60
2022/12/01 08:09:36;;;;;;;80.00;33.10;;;;;;;1.27;91.41;101485.10;103288;1282;22497;-60
2022/12/01 08:12:09;;;;;;;68.80;27.80;;;;;;;1.29;91.51;101486.85;103247;1302;22474;-60
2022/12/01 08:14:40;;;;;;;73.10;30.70;;;;;;;1.29;91.33;101479.69;103205;1304;22494;-60
2022/12/01 08:17:11;;;;;;;73.80;28.40;;;;;;;1.29;91.47;101483.30;103166;1282;22894;-59
2022/12/01 08:19:43;;;;;;;73.00;28.90;;;;;;;1.33;91.61;101483.87;103177;1274;22484;-58
2022/12/01 08:22:14;;;;;;;70.20;28.30;;;;;;;1.34;91.56;101482.08;103210;1281;22584;-58
2022/12/01 08:24:45;;;;;;;63.30;24.10;;;;;;;1.39;91.67;101483.12;103217;1282;25317;-58
2022/12/01 08:27:18;;;;;;;69.20;29.00;;;;;;;1.40;91.51;101482.96;103193;1274;22559;-58
2022/12/01 08:29:49;;;;;;;68.00;28.80;;;;;;;1.43;91.58;101484.30;103171;1282;22627;-58
2022/12/01 08:32:21;;;;;;;74.00;28.70;;;;;;;1.47;91.58;101486.45;103174;1287;25187;-56
2022/12/01 08:34:53;;;;;;;67.60;28.70;;;;;;;1.49;91.61;101481.20;103266;1303;25327;-58
2022/12/01 08:37:24;;;;;;;77.60;30.00;;;;;;;1.51;91.61;101481.73;103121;1280;22482;-61
2022/12/01 08:39:56;;;;;;;67.20;28.80;;;;;;;1.53;91.47;101482.00;103196;1282;24309;-58
2022/12/01 08:42:27;;;;;;;72.60;31.50;;;;;;;1.52;91.54;101485.06;103130;1280;22614;-58
2022/12/01 08:44:58;;;;;;;73.90;32.70;;;;;;;1.54;91.50;101478.86;103190;1281;25372;-58
2022/12/01 08:47:31;;;;;;;68.80;30.10;;;;;;;1.56;91.39;101479.80;103147;1305;25277;-61
2022/12/01 08:50:03;;;;;;;77.90;33.30;;;;;;;1.55;91.46;101481.60;103229;1281;22470;-58
2022/12/01 08:52:35;;;;;;;84.70;35.20;;;;;;;1.58;91.68;101482.33;103245;1290;24448;-58
2022/12/01 08:55:08;;;;;;;79.10;37.00;;;;;;;1.61;91.53;101483.11;103290;1282;22488;-58
2022/12/01 08:57:40;;;;;;;81.30;33.10;;;;;;;1.61;91.40;101481.70;103147;1282;25392;-58
2022/12/01 09:00:14;;;;;;;65.70;29.30;;;;;;;1.62;91.47;101482.57;103133;1306;24302;-59
2022/12/01 09:02:46;;;;;;;71.80;33.20;;;;;;;1.60;91.46;101485.88;103174;1280;23218;-60
2022/12/01 09:05:18;;;;;;;77.90;31.90;;;;;;;1.64;91.69;101486.98;103280;1281;22481;-58
2022/12/01 09:08:30;;;;;;;73.60;32.10;;;;;;;1.68;91.59;101486.99;103181;1304;25873;-58
2022/12/01 09:10:41;;;;;;;68.80;30.70;;;;;;;1.69;91.49;101488.11;103205;1305;22516;-58
2022/12/01 09:13:12;;;;;;;70.90;30.50;;;;;;;1.71;91.62;101488.19;103212;1281;23238;-57
2022/12/01 09:15:43;;;;;;;70.70;30.80;;;;;;;1.74;91.53;101490.70;103361;1277;22504;-58
2022/12/01 09:18:15;;;;;;;76.30;31.80;;;;;;;1.75;91.45;101491.19;103161;1282;22483;-58
2022/12/01 09:20:47;;;;;;;70.60;31.60;;;;;;;1.76;91.54;101487.57;103207;1280;22478;-61
2022/12/01 09:23:18;;;;;;;69.90;30.80;;;;;;;1.77;91.39;101485.77;103259;1283;22534;-58
2022/12/01 09:25:50;;;;;;;70.00;31.30;;;;;;;1.80;91.61;101487.83;103208;1306;22533;-59
2022/12/01 09:28:22;;;;;;;79.00;34.50;;;;;;;1.83;91.53;101483.82;103188;1282;23045;-57
2022/12/01 09:30:54;;;;;;;76.50;33.20;;;;;;;1.86;91.59;101486.10;103196;1274;22814;-59
2022/12/01 09:33:25;;;;;;;69.80;31.10;;;;;;;1.89;91.56;101482.27;103177;1282;22500;-59
2022/12/01 09:36:00;;;;;;;71.20;31.40;;;;;;;1.90;91.33;101479.81;103224;1281;25429;-59
2022/12/01 09:39:03;;;;;;;70.20;31.60;;;;;;;1.89;91.27;101478.08;103073;1281;25286;-59
2022/12/01 09:41:37;;;;;;;73.30;31.50;;;;;;;1.89;91.45;101469.73;103388;1289;22466;-59
2022/12/01 09:44:19;;;;;;;70.10;31.00;;;;;;;1.90;91.47;101468.49;103230;1306;25378;-58
2022/12/01 09:46:56;;;;;;;65.90;28.00;;;;;;;1.93;91.58;101467.00;103310;1304;22472;-59
2022/12/01 09:49:39;;;;;;;62.60;26.00;;;;;;;1.94;91.27;101465.20;103231;1291;26593;-58
2022/12/01 09:52:14;;;;;;;60.90;27.10;;;;;;;1.95;91.57;101461.25;103301;1282;22474;-59
2022/12/01 09:54:46;;;;;;;57.00;24.10;;;;;;;1.96;91.32;101455.45;103277;1281;22517;-59
2022/12/01 09:57:27;;;;;;;62.30;26.70;;;;;;;1.95;91.37;101455.59;103224;1304;22474;-58
2022/12/01 10:00:01;;;;;;;61.10;25.20;;;;;;;1.98;91.57;101455.21;103135;1281;22509;-59
2022/12/01 10:02:37;;;;;;;56.10;25.30;;;;;;;2.01;91.56;101452.21;103360;1280;25433;-60
2022/12/01 10:05:22;;;;;;;59.90;25.90;;;;;;;2.04;91.50;101458.14;103190;1305;24268;-60
2022/12/01 10:07:59;;;;;;;56.40;23.20;;;;;;;2.07;91.37;101455.92;103226;1298;25376;-60
2022/12/01 10:10:35;;;;;;;59.30;24.60;;;;;;;2.07;91.32;101454.59;103463;1274;22468;-60
2022/12/01 10:13:16;;;;;;;53.00;24.20;;;;;;;2.10;91.41;101452.94;103253;1281;22477;-60
2022/12/01 10:15:57;;;;;;;57.50;24.90;;;;;;;2.12;91.32;101453.72;103315;1306;24508;-61
2022/12/01 10:18:42;;;;;;;63.30;26.20;;;;;;;2.14;91.36;101450.10;103385;1281;22461;-60
2022/12/01 10:21:22;;;;;;;56.20;26.00;;;;;;;2.18;91.33;101446.34;103231;1281;22466;-59
2022/12/01 10:24:07;;;;;;;57.50;26.10;;;;;;;2.20;91.28;101448.69;103280;1280;22459;-59
2022/12/01 10:26:50;;;;;;;53.90;23.50;;;;;;;2.24;91.46;101444.13;103105;1280;22474;-60
2022/12/01 10:29:36;;;;;;;53.60;24.60;;;;;;;2.26;91.15;101438.63;103250;1280;24261;-60
2022/12/01 10:32:17;;;;;;;62.10;28.70;;;;;;;2.28;91.15;101438.61;103247;1305;22476;-59
2022/12/01 10:34:50;;;;;;;57.20;25.60;;;;;;;2.30;91.04;101437.60;103188;1306;22491;-58
2022/12/01 10:37:24;;;;;;;58.90;26.70;;;;;;;2.32;91.02;101433.65;103271;1294;23099;-58
2022/12/01 10:39:58;;;;;;;57.90;26.00;;;;;;;2.35;90.94;101434.52;103151;1304;22489;-58
2022/12/01 10:42:32;;;;;;;58.10;26.60;;;;;;;2.35;90.99;101435.94;103211;1289;22745;-58
2022/12/01 10:45:06;;;;;;;80.60;42.20;;;;;;;2.38;90.82;101434.20;103078;1279;25301;-57
2022/12/01 10:47:38;;;;;;;77.60;39.20;;;;;;;2.38;90.67;101431.45;103318;1282;22470;-57
2022/12/01 10:50:27;;;;;;;62.30;29.60;;;;;;;2.38;90.53;101427.27;103217;1282;25201;-57
2022/12/01 10:52:59;;;;;;;52.70;24.60;;;;;;;2.38;90.82;101424.99;103207;1305;24326;-57
2022/12/01 10:55:34;;;;;;;55.10;27.40;;;;;;;2.39;90.79;101424.38;103329;1267;22477;-58
2022/12/01 10:58:14;;;;;;;54.00;24.70;;;;;;;2.40;90.74;101422.79;103260;1279;22484;-57
2022/12/01 11:00:55;;;;;;;52.60;23.30;;;;;;;2.42;90.76;101420.27;103152;1280;22745;-58
2022/12/01 11:03:30;;;;;;;48.20;22.70;;;;;;;2.42;90.57;101416.10;103200;1298;22470;-58
2022/12/01 11:06:04;;;;;;;57.20;24.70;;;;;;;2.43;90.55;101417.83;103128;1284;22470;-58
2022/12/01 11:08:41;;;;;;;50.40;23.30;;;;;;;2.43;90.59;101417.20;103200;1306;24288;-57
2022/12/01 11:11:29;;;;;;;47.20;21.80;;;;;;;2.44;90.66;101419.02;103208;1283;22484;-57
2022/12/01 11:14:05;;;;;;;59.20;25.50;;;;;;;2.46;90.51;101415.62;103322;1288;22601;-57
2022/12/01 11:16:42;;;;;;;62.00;27.60;;;;;;;2.45;90.44;101416.17;103232;1305;22458;-58
2022/12/01 11:19:31;;;;;;;167.20;70.90;;;;;;;2.46;90.59;101415.62;103277;1281;22942;-58
2022/12/01 11:22:18;;;;;;;184.30;75.50;;;;;;;2.47;90.45;101411.98;103280;1280;22734;-58
2022/12/01 11:25:01;;;;;;;185.00;75.20;;;;;;;2.48;90.41;101411.05;103105;1288;22479;-58
2022/12/01 11:27:38;;;;;;;142.70;57.40;;;;;;;2.49;90.44;101413.64;103262;1281;22539;-58
2022/12/01 11:30:23;;;;;;;67.60;28.00;;;;;;;2.49;90.38;101413.65;103281;1281;22487;-58
2022/12/01 11:32:58;;;;;;;57.80;26.00;;;;;;;2.47;90.28;101410.58;103232;1286;24314;-57
2022/12/01 11:35:33;;;;;;;58.30;24.30;;;;;;;2.46;90.37;101411.61;103294;1286;24314;-58
2022/12/01 11:38:06;;;;;;;70.90;29.90;;;;;;;2.50;90.62;101412.54;103342;1305;22471;-56
2022/12/01 11:40:48;;;;;;;56.40;25.90;;;;;;;2.52;90.41;101413.65;103259;1281;24236;-57
2022/12/01 11:43:27;;;;;;;70.00;30.90;;;;;;;2.52;90.39;101413.65;103308;1287;22535;-59
2022/12/01 11:46:02;;;;;;;74.00;35.80;;;;;;;2.53;90.56;101416.30;103359;1278;22468;-58
2022/12/01 11:48:35;;;;;;;57.70;26.10;;;;;;;2.54;90.41;101415.84;103098;1290;25216;-57